• Join FlightAware (Why Join?)
  • Login
  • US Flag 
03:38AM EDT


 

Airport Tracker/Info


-or-


 

Live Flight TrackerFlight Track Log ✈ SWA1969 ✈ 18-Apr-2013 ✈ KDAL - KMCI

Flight Track Log - Related Links

Times and Time Zones

All times are in EDT time to prevent confusion due to time zone crossing. See the SWA1969 flight status page for this flight to view local times or setup timezone preferences in your user account.

Time Position Orientation Groundspeed Altitude Reporting Facility
EDT Latitude Longitude Course Direction KTS MPH feet Rate Location/Type
10:32AM 32.8667 -96.8833 14° North 145 167 2,100  Level Dallas / Fort Worth TRACON
10:33AM 32.9000 -96.9167 320° Northwest 198 228 4,400 2,400 Climbing Dallas / Fort Worth TRACON
10:34AM 32.9500 -96.9667 320° Northwest 246 283 6,700 2,640 Climbing Dallas / Fort Worth TRACON
10:36AM 33.1439 -97.0289 345° North 328 377 13,200 2,640 Climbing Fort Worth Center
10:37AM 33.3752 -96.6741 14° North  Level FlightAware Approximate
10:37AM 33.2483 -97.0558 348° North 342 394 15,900  Level Fort Worth Center
10:38AM 33.3444 -97.0828 347° North 378 435 18,200 2,100 Climbing Fort Worth Center
10:39AM 33.4675 -97.1047 352° North 401 461 20,100 1,860 Climbing Fort Worth Center
10:40AM 33.5781 -97.0919 North 427 491 22,000 2,040 Climbing Fort Worth Center
10:42AM 33.8453 -97.0433 North 465 535 26,300 1,980 Climbing Fort Worth Center
10:43AM 33.9744 -96.9953 17° North 470 541 28,000 1,500 Climbing Fort Worth Center
10:44AM 34.1058 -96.9444 18° North 476 548 29,400 1,200 Climbing Fort Worth Center
10:45AM 34.2433 -96.8958 16° North 489 563 30,400 1,200 Climbing Fort Worth Center
10:46AM 34.3828 -96.8447 17° North 508 585 31,800 1,560 Climbing Fort Worth Center
10:47AM 34.5225 -96.7933 17° North 513 590 33,600 1,560 Climbing Fort Worth Center
10:48AM 34.6578 -96.7419 17° North 513 590 35,000 660 Climbing Fort Worth Center
10:49AM 34.7950 -96.6903 17° North 513 590 35,000  Level Fort Worth Center
10:50AM 34.9325 -96.6386 17° North 513 590 35,000  Level Fort Worth Center
10:51AM 35.0678 -96.5867 17° North 513 590 35,000  Level Fort Worth Center
10:53AM 35.2825 -96.5058 17° North 513 590 35,000  Level Kansas City Center
10:54AM 35.4181 -96.4547 17° North 513 590 35,000  Level Kansas City Center
10:55AM 35.5519 -96.4019 18° North 510 587 35,000  Level Kansas City Center
10:56AM 35.6869 -96.3508 17° North 510 587 35,000  Level Kansas City Center
10:57AM 35.8344 -96.2981 16° North 515 593 35,000  Level Kansas City Center
10:58AM 35.9733 -96.2611 12° North 509 586 35,000  Level Kansas City Center
10:59AM 36.1136 -96.2211 13° North 511 588 35,000  Level Kansas City Center
11:00AM 36.2528 -96.1811 13° North 510 587 35,000  Level Kansas City Center
11:01AM 36.3939 -96.1406 13° North 513 590 35,000  Level Kansas City Center
11:02AM 36.5631 -96.0917 13° North 514 592 35,000  Level Kansas City Center
11:03AM 36.7044 -96.0500 13° North 516 594 35,000  Level Kansas City Center
11:04AM 36.8458 -96.0092 13° North 516 594 35,000  Level Kansas City Center
11:05AM 36.9864 -95.9692 13° North 515 593 35,000  Level Kansas City Center
11:06AM 37.1272 -95.9272 13° North 515 593 35,000 -240 Level Kansas City Center
11:07AM 37.2686 -95.8861 13° North 517 595 34,600 -1,260 Descending Kansas City Center
11:08AM 37.4100 -95.8442 13° North 519 597 32,500 -1,920 Descending Kansas City Center
11:09AM 37.5483 -95.8028 13° North 512 589 30,600 -1,860 Descending Kansas City Center
11:10AM 37.6831 -95.7611 14° North 500 575 28,800 -1,860 Descending Kansas City Center
11:11AM 37.8144 -95.7194 14° North 489 563 26,900 -1,920 Descending Kansas City Center
11:12AM 37.9492 -95.6850 11° North 479 551 24,900 -2,040 Descending Kansas City Center
11:13AM 38.0908 -95.6406 14° North 468 539 22,900 -1,860 Descending Kansas City Center
11:14AM 38.2081 -95.6044 14° North 455 524 21,200 -1,680 Descending Kansas City Center
11:15AM 38.3239 -95.5694 13° North 448 516 19,500 -1,800 Descending Kansas City Center
11:16AM 38.4556 -95.5286 14° North 437 503 17,600 -1,920 Descending Kansas City Center
11:17AM 38.5667 -95.4950 13° North 430 495 15,700 -1,920 Descending Kansas City Center
11:18AM 38.6933 -95.4553 14° North 419 482 13,800 -1,500 Descending Kansas City Center
11:19AM 38.7967 -95.4211 14° North 400 460 12,700 -1,200 Descending Kansas City Center
11:20AM 38.8769 -95.3219 44° Northeast 359 413 11,400 -1,320 Descending Kansas City Center
11:21AM 38.9339 -95.2300 51° Northeast 347 399 10,100 -1,500 Descending Kansas City Center
11:22AM 38.9769 -95.1122 65° Northeast 329 379 8,400 -1,140 Descending Kansas City Center
11:23AM 39.0050 -95.0139 70° East 312 359 7,800 -600 Descending Kansas City Center
11:24AM 39.0239 -94.9286 74° East 256 295 7,300 -900 Descending Kansas City Center
11:25AM 39.0622 -94.8475 59° Northeast 242 278 6,000 -1,020 Descending Kansas City Center
11:26AM 39.1044 -94.7861 48° Northeast 237 273 5,200 -1,080 Descending Kansas City Center
11:27AM 39.1636 -94.7675 14° North 198 228 3,800 -1,080 Descending Kansas City Center
11:29AM 39.2031 -94.7561 13° North 157 181 3,000 -840 Descending Kansas City Center
11:30AM 39.2456 -94.7442 12° North 141 162 2,100 -900 Descending Kansas City Center
11:31AM 39.2828 -94.7325 14° North 143 165 1,300 -840 Descending Kansas City Center